Time;durP1;ratioP1;P1;durP2;ratioP2;P2;SDS_P1;SDS_P2;PMS_P1;PMS_P2;Temp;Humidity;BMP_temperature;BMP_pressure;BME280_temperature;BME280_humidity;BME280_pressure;Samples;Min_cycle;Max_cycle;Signal;HPM_P1;HPM_P2
2023/04/29 00:01:12;;;;;;;3.60;0.60;;;;;;;2.90;100.00;99726.09;105323;1253;59588;-51
2023/04/29 00:03:39;;;;;;;3.30;0.70;;;;;;;2.89;100.00;99721.33;105297;1253;59600;-47
2023/04/29 00:06:06;;;;;;;0.80;0.50;;;;;;;2.88;100.00;99727.21;105559;1252;59606;-49
2023/04/29 00:08:33;;;;;;;1.80;0.70;;;;;;;2.85;100.00;99731.51;107658;1254;72001;-49
2023/04/29 00:11:00;;;;;;;2.20;0.70;;;;;;;2.83;100.00;99733.32;105393;1256;66967;-49
2023/04/29 00:13:27;;;;;;;2.90;0.80;;;;;;;2.81;100.00;99730.70;105446;1254;59662;-47
2023/04/29 00:15:53;;;;;;;2.60;0.70;;;;;;;2.78;100.00;99727.92;105439;1257;59922;-48
2023/04/29 00:18:20;;;;;;;2.10;0.70;;;;;;;2.73;100.00;99724.45;105438;1258;59758;-48
2023/04/29 00:20:46;;;;;;;2.10;0.60;;;;;;;2.69;100.00;99729.67;105753;1257;72616;-49
2023/04/29 00:23:13;;;;;;;1.10;0.60;;;;;;;2.64;100.00;99726.02;106076;1257;67277;-48
2023/04/29 00:25:40;;;;;;;2.00;0.70;;;;;;;2.60;100.00;99726.27;105589;1257;73778;-47
2023/04/29 00:28:06;;;;;;;4.40;0.60;;;;;;;2.56;100.00;99722.08;105499;1256;59657;-49
2023/04/29 00:30:33;;;;;;;1.60;0.80;;;;;;;2.53;100.00;99718.25;105573;1254;59756;-45
2023/04/29 00:33:00;;;;;;;2.00;0.60;;;;;;;2.50;100.00;99714.92;105560;1257;72134;-47
2023/04/29 00:35:26;;;;;;;1.80;0.60;;;;;;;2.50;100.00;99718.47;105527;1257;66011;-46
2023/04/29 00:37:53;;;;;;;1.30;0.60;;;;;;;2.50;100.00;99718.99;105595;1257;59820;-46
2023/04/29 00:40:20;;;;;;;2.40;0.80;;;;;;;2.50;100.00;99719.52;105595;1257;59633;-47
2023/04/29 00:42:46;;;;;;;0.90;0.50;;;;;;;2.51;100.00;99721.45;109124;1254;59442;-47
2023/04/29 00:45:13;;;;;;;4.10;1.30;;;;;;;2.51;100.00;99724.65;109028;1256;71318;-48
2023/04/29 00:47:40;;;;;;;1.50;0.50;;;;;;;2.53;100.00;99721.95;109049;1253;67834;-50
2023/04/29 00:50:07;;;;;;;1.80;0.60;;;;;;;2.55;100.00;99725.98;109039;1253;70267;-46
2023/04/29 00:52:35;;;;;;;1.80;0.50;;;;;;;2.57;100.00;99727.38;109119;1253;59349;-48
2023/04/29 00:55:01;;;;;;;2.30;0.50;;;;;;;2.57;100.00;99729.50;108955;1253;57424;-47
2023/04/29 00:57:29;;;;;;;3.80;0.60;;;;;;;2.57;100.00;99730.38;108922;1253;73868;-49
2023/04/29 00:59:58;;;;;;;0.70;0.50;;;;;;;2.55;100.00;99734.15;109120;1253;65894;-47
2023/04/29 01:02:25;;;;;;;2.20;0.50;;;;;;;2.52;100.00;99739.16;109006;1254;72511;-47
2023/04/29 01:04:52;;;;;;;0.80;0.40;;;;;;;2.52;100.00;99736.33;109108;1253;58425;-48
2023/04/29 01:07:30;;;;;;;1.00;0.50;;;;;;;2.53;100.00;99736.67;109058;1254;60110;-47
2023/04/29 01:10:17;;;;;;;2.00;0.60;;;;;;;2.52;100.00;99735.09;108890;1256;73168;-48
2023/04/29 01:12:48;;;;;;;4.80;0.50;;;;;;;2.50;100.00;99732.98;109065;1253;68194;-48
2023/04/29 01:15:20;;;;;;;1.10;0.50;;;;;;;2.46;100.00;99736.05;109100;1252;71726;-46
2023/04/29 01:17:50;;;;;;;1.70;0.60;;;;;;;2.44;100.00;99737.52;108928;1253;60978;-48
2023/04/29 01:20:18;;;;;;;1.00;0.50;;;;;;;2.42;100.00;99736.84;109006;1253;61200;-47
2023/04/29 01:22:44;;;;;;;3.00;0.40;;;;;;;2.36;100.00;99733.04;109025;1253;75823;-47
2023/04/29 01:25:11;;;;;;;0.60;0.40;;;;;;;2.31;100.00;99734.00;109020;1254;66716;-47
2023/04/29 01:28:13;;;;;;;2.40;0.60;;;;;;;2.25;100.00;99736.55;108738;1255;73660;-47
2023/04/29 01:30:56;;;;;;;0.80;0.50;;;;;;;2.22;100.00;99742.98;105415;1253;61203;-47
2023/04/29 01:33:33;;;;;;;1.20;0.40;;;;;;;2.19;100.00;99747.64;105459;1257;60420;-47
2023/04/29 01:36:38;;;;;;;1.60;0.40;;;;;;;2.19;100.00;99752.42;105491;1259;72796;-47
2023/04/29 01:39:13;;;;;;;1.10;0.40;;;;;;;2.18;100.00;99755.44;105445;1257;67102;-46
2023/04/29 01:41:51;;;;;;;2.60;0.50;;;;;;;2.16;100.00;99754.76;106261;1253;72690;-44
2023/04/29 01:44:24;;;;;;;2.30;0.50;;;;;;;2.15;100.00;99757.42;106193;1253;62365;-46
2023/04/29 01:46:52;;;;;;;2.70;0.80;;;;;;;2.12;100.00;99759.24;105564;1259;60427;-46
2023/04/29 01:49:21;;;;;;;2.50;0.70;;;;;;;2.08;100.00;99760.89;105714;1254;75045;-48
2023/04/29 01:51:47;;;;;;;0.70;0.50;;;;;;;2.03;100.00;99761.67;105373;1254;68981;-45
2023/04/29 01:54:14;;;;;;;0.60;0.50;;;;;;;1.99;100.00;99763.49;105492;1254;73596;-48
2023/04/29 01:56:41;;;;;;;0.90;0.50;;;;;;;1.95;100.00;99769.22;105726;1256;60397;-47
2023/04/29 01:59:20;;;;;;;1.00;0.60;;;;;;;1.89;100.00;99776.17;105369;1253;60438;-46
2023/04/29 02:02:14;;;;;;;0.90;0.50;;;;;;;1.86;100.00;99775.88;105329;1253;73365;-48
2023/04/29 02:04:49;;;;;;;3.50;0.50;;;;;;;1.83;100.00;99780.16;105302;1253;68119;-46
2023/04/29 02:07:16;;;;;;;0.90;0.50;;;;;;;1.81;100.00;99784.42;105566;1258;72668;-45
2023/04/29 02:09:43;;;;;;;4.60;0.50;;;;;;;1.78;100.00;99783.23;105978;1255;60411;-45
2023/04/29 02:12:11;;;;;;;0.80;0.40;;;;;;;1.74;100.00;99778.15;105563;1253;60560;-44
2023/04/29 02:14:38;;;;;;;4.60;0.50;;;;;;;1.70;100.00;99779.27;106170;1252;75282;-45
2023/04/29 02:17:05;;;;;;;1.40;0.30;;;;;;;1.66;100.00;99779.85;105696;1253;68351;-45
2023/04/29 02:19:31;;;;;;;0.70;0.40;;;;;;;1.61;100.00;99779.55;106175;1253;71281;-45
2023/04/29 02:21:59;;;;;;;1.90;0.50;;;;;;;1.60;100.00;99777.98;108839;1252;61178;-47
2023/04/29 02:24:25;;;;;;;3.00;0.50;;;;;;;1.59;100.00;99779.41;107383;1252;59525;-47
2023/04/29 02:26:52;;;;;;;0.60;0.40;;;;;;;1.61;100.00;99779.04;105820;1254;73971;-45
2023/04/29 02:29:19;;;;;;;1.30;0.50;;;;;;;1.61;100.00;99777.27;105632;1253;68476;-47
2023/04/29 02:31:46;;;;;;;1.80;0.50;;;;;;;1.62;100.00;99782.53;105647;1253;71832;-44
2023/04/29 02:34:12;;;;;;;1.50;0.50;;;;;;;1.63;100.00;99783.59;105784;1256;60292;-46
2023/04/29 02:36:39;;;;;;;0.60;0.50;;;;;;;1.62;100.00;99790.32;105459;1253;60539;-47
2023/04/29 02:39:06;;;;;;;0.60;0.40;;;;;;;1.63;100.00;99794.02;105465;1254;73565;-46
2023/04/29 02:41:32;;;;;;;3.80;0.50;;;;;;;1.64;100.00;99798.61;105625;1258;66987;-46
2023/04/29 02:43:59;;;;;;;0.90;0.50;;;;;;;1.62;100.00;99802.17;105611;1253;73180;-45
2023/04/29 02:46:25;;;;;;;1.30;0.50;;;;;;;1.58;100.00;99800.64;105445;1257;60736;-49
2023/04/29 02:48:52;;;;;;;0.80;0.50;;;;;;;1.53;100.00;99799.64;105392;1255;60541;-45
2023/04/29 02:51:19;;;;;;;2.80;0.50;;;;;;;1.47;100.00;99803.58;105399;1254;74871;-48
2023/04/29 02:53:45;;;;;;;1.70;0.50;;;;;;;1.45;100.00;99807.15;105414;1257;65945;-46
2023/04/29 02:56:12;;;;;;;3.60;0.70;;;;;;;1.43;100.00;99810.70;105404;1254;60464;-48
2023/04/29 02:58:38;;;;;;;0.70;0.40;;;;;;;1.42;100.00;99811.24;105412;1256;60572;-48
2023/04/29 03:01:05;;;;;;;1.30;0.60;;;;;;;1.41;100.00;99813.73;108970;1253;59452;-48
2023/04/29 03:03:31;;;;;;;1.60;0.40;;;;;;;1.39;100.00;99811.27;106500;1254;73819;-44
2023/04/29 03:05:58;;;;;;;0.70;0.50;;;;;;;1.42;100.00;99816.02;106141;1253;67120;-47
2023/04/29 03:08:25;;;;;;;0.90;0.40;;;;;;;1.44;100.00;99824.67;105331;1255;72953;-46
2023/04/29 03:10:52;;;;;;;1.50;0.40;;;;;;;1.46;100.00;99825.34;105421;1257;61355;-44
2023/04/29 03:13:19;;;;;;;2.60;0.50;;;;;;;1.49;100.00;99825.31;105615;1253;60909;-48
2023/04/29 03:15:46;;;;;;;3.10;0.60;;;;;;;1.55;100.00;99830.20;105373;1256;73800;-48
2023/04/29 03:18:12;;;;;;;0.80;0.50;;;;;;;1.58;100.00;99830.88;105327;1258;68428;-45
2023/04/29 03:20:39;;;;;;;2.30;0.60;;;;;;;1.62;100.00;99834.36;105303;1254;71409;-44
2023/04/29 03:23:06;;;;;;;1.60;0.70;;;;;;;1.63;100.00;99836.83;105455;1257;61790;-45
2023/04/29 03:25:32;;;;;;;0.70;0.50;;;;;;;1.62;100.00;99840.39;105480;1253;60448;-47
2023/04/29 03:27:59;;;;;;;1.90;0.60;;;;;;;1.60;100.00;99842.36;105407;1254;74942;-46
2023/04/29 03:30:25;;;;;;;1.10;0.50;;;;;;;1.58;100.00;99839.90;105317;1256;68353;-46
2023/04/29 03:32:54;;;;;;;2.40;0.70;;;;;;;1.59;100.00;99844.14;105711;1256;71460;-42
2023/04/29 03:35:21;;;;;;;0.90;0.50;;;;;;;1.59;100.00;99847.33;105447;1256;60377;-49
2023/04/29 03:38:07;;;;;;;2.40;0.50;;;;;;;1.60;100.00;99848.55;105464;1253;60444;-45
2023/04/29 03:40:34;;;;;;;1.40;0.60;;;;;;;1.65;100.00;99850.95;106799;1253;74663;-48
2023/04/29 03:43:01;;;;;;;1.50;0.70;;;;;;;1.71;100.00;99855.14;105239;1253;67329;-45
2023/04/29 03:45:28;;;;;;;2.00;0.40;;;;;;;1.78;100.00;99855.25;105269;1256;73717;-47
2023/04/29 03:47:55;;;;;;;1.30;0.50;;;;;;;1.88;100.00;99853.53;109034;1253;59983;-48
2023/04/29 03:50:22;;;;;;;5.00;0.50;;;;;;;2.01;100.00;99855.86;109024;1253;58795;-45
2023/04/29 03:52:48;;;;;;;2.00;0.50;;;;;;;2.18;100.00;99855.82;109051;1254;72790;-45
2023/04/29 03:55:16;;;;;;;1.70;0.70;;;;;;;2.38;100.00;99859.98;109095;1255;67646;-46
2023/04/29 03:57:43;;;;;;;0.70;0.40;;;;;;;2.56;100.00;99855.48;109097;1253;73858;-46
2023/04/29 04:00:10;;;;;;;2.60;0.70;;;;;;;2.74;100.00;99855.75;108800;1253;58822;-46
2023/04/29 04:02:39;;;;;;;2.40;0.60;;;;;;;2.90;100.00;99849.64;109113;1252;60748;-45
2023/04/29 04:05:07;;;;;;;0.80;0.40;;;;;;;3.10;100.00;99849.68;108645;1253;72686;-47
2023/04/29 04:07:34;;;;;;;1.00;0.50;;;;;;;3.38;100.00;99846.52;105496;1256;68614;-46
2023/04/29 04:10:23;;;;;;;1.90;0.50;;;;;;;3.83;100.00;99843.56;109022;1253;73726;-46
2023/04/29 04:12:50;;;;;;;0.50;0.50;;;;;;;4.23;100.00;99837.06;109015;1253;59290;-48
2023/04/29 04:15:17;;;;;;;1.00;0.50;;;;;;;4.62;100.00;99833.17;108985;1253;59459;-47
2023/04/29 04:17:43;;;;;;;3.50;0.60;;;;;;;4.94;100.00;99827.61;108961;1253;75134;-48
2023/04/29 04:20:11;;;;;;;1.50;0.50;;;;;;;5.30;100.00;99822.07;109034;1253;68305;-47
2023/04/29 04:22:37;;;;;;;0.90;0.60;;;;;;;5.76;100.00;99815.86;109146;1253;70234;-48
2023/04/29 04:25:13;;;;;;;1.30;0.60;;;;;;;6.32;100.00;99810.52;109033;1252;58518;-46
2023/04/29 04:27:40;;;;;;;1.70;0.70;;;;;;;6.84;100.00;99799.58;109058;1252;59190;-48
2023/04/29 04:30:08;;;;;;;3.30;0.50;;;;;;;7.31;100.00;99794.63;109049;1252;72409;-48
2023/04/29 04:32:36;;;;;;;1.00;0.60;;;;;;;7.55;100.00;99791.11;105082;1253;68453;-47
2023/04/29 04:35:03;;;;;;;2.40;0.50;;;;;;;7.70;100.00;99791.65;106916;1253;72796;-47
2023/04/29 04:37:30;;;;;;;1.10;0.60;;;;;;;7.85;100.00;99792.34;105480;1258;60723;-46
2023/04/29 04:39:58;;;;;;;1.30;0.50;;;;;;;7.86;100.00;99789.10;105390;1253;60419;-47
2023/04/29 04:42:24;;;;;;;1.40;0.60;;;;;;;7.78;100.00;99794.40;105215;1254;73006;-49
2023/04/29 04:44:52;;;;;;;1.70;0.60;;;;;;;7.64;100.00;99795.09;105811;1253;67036;-51
2023/04/29 04:47:29;;;;;;;1.50;0.60;;;;;;;7.47;100.00;99799.44;106287;1253;72030;-47
2023/04/29 04:50:07;;;;;;;1.10;0.60;;;;;;;7.36;100.00;99796.27;105596;1253;60833;-50
2023/04/29 04:52:34;;;;;;;1.10;0.50;;;;;;;7.29;100.00;99795.44;105978;1256;61895;-50
2023/04/29 04:55:16;;;;;;;1.70;0.60;;;;;;;7.19;100.00;99795.94;105433;1255;73875;-49
2023/04/29 04:57:45;;;;;;;1.10;0.50;;;;;;;7.09;100.00;99795.19;105841;1257;67474;-49
2023/04/29 05:00:12;;;;;;;1.30;0.60;;;;;;;7.03;100.00;99793.80;105357;1253;73832;-51
2023/04/29 05:02:39;;;;;;;0.90;0.50;;;;;;;7.02;100.00;99799.21;106204;1256;61466;-51
2023/04/29 05:05:06;;;;;;;1.10;0.60;;;;;;;7.01;100.00;99797.07;105418;1258;60433;-49
2023/04/29 05:07:34;;;;;;;4.90;0.80;;;;;;;7.01;100.00;99792.63;105531;1253;73910;-50
2023/04/29 05:10:05;;;;;;;2.00;0.60;;;;;;;7.00;100.00;99798.17;105026;1253;69369;-50
2023/04/29 05:12:34;;;;;;;2.50;0.80;;;;;;;7.01;100.00;99793.52;105191;1255;70768;-49
2023/04/29 05:15:01;;;;;;;2.10;0.70;;;;;;;7.05;100.00;99798.39;104758;1253;60525;-49
2023/04/29 05:17:29;;;;;;;2.50;0.50;;;;;;;7.09;100.00;99801.10;105373;1256;61391;-46
2023/04/29 05:19:55;;;;;;;3.90;0.60;;;;;;;7.13;100.00;99797.02;105074;1253;73576;-49
2023/04/29 05:22:23;;;;;;;1.50;0.80;;;;;;;7.20;100.00;99788.96;105574;1256;66917;-50
2023/04/29 05:24:50;;;;;;;2.30;0.60;;;;;;;7.28;100.00;99795.11;105623;1253;72121;-50
2023/04/29 05:27:17;;;;;;;5.30;0.60;;;;;;;7.34;100.00;99794.88;105421;1259;60895;-50
2023/04/29 05:29:44;;;;;;;1.30;0.60;;;;;;;7.41;100.00;99798.73;105789;1253;60737;-48
2023/04/29 05:32:12;;;;;;;1.20;0.60;;;;;;;7.49;100.00;99796.33;105816;1252;73803;-51
2023/04/29 05:34:39;;;;;;;1.00;0.60;;;;;;;7.56;100.00;99796.98;105509;1253;67691;-50
2023/04/29 05:37:05;;;;;;;2.00;0.50;;;;;;;7.66;100.00;99797.85;105602;1257;72755;-48
2023/04/29 05:39:36;;;;;;;2.40;0.60;;;;;;;7.78;100.00;99795.09;105411;1258;60413;-48
2023/04/29 05:42:08;;;;;;;1.50;0.50;;;;;;;7.92;100.00;99789.59;105541;1254;61898;-48
2023/04/29 05:44:42;;;;;;;1.20;0.50;;;;;;;8.06;100.00;99787.64;106393;1256;74043;-47
2023/04/29 05:47:09;;;;;;;1.00;0.50;;;;;;;8.17;100.00;99786.85;105565;1253;67197;-49
2023/04/29 05:49:38;;;;;;;0.80;0.30;;;;;;;8.30;100.00;99787.27;105822;1253;71184;-46
2023/04/29 05:52:05;;;;;;;1.70;0.30;;;;;;;8.41;100.00;99779.01;105605;1257;60509;-46
2023/04/29 05:54:32;;;;;;;1.20;0.30;;;;;;;8.50;100.00;99777.04;105657;1253;60463;-49
2023/04/29 05:57:01;;;;;;;0.70;0.20;;;;;;;8.61;100.00;99776.94;105689;1254;72887;-46
2023/04/29 05:59:31;;;;;;;0.60;0.30;;;;;;;8.74;100.00;99776.77;105378;1257;69293;-51
2023/04/29 06:01:59;;;;;;;1.80;0.50;;;;;;;8.84;100.00;99779.41;106423;1258;72944;-48
2023/04/29 06:04:25;;;;;;;0.80;0.30;;;;;;;8.94;100.00;99781.33;105748;1253;60541;-51
2023/04/29 06:06:52;;;;;;;2.50;0.20;;;;;;;9.05;100.00;99782.13;105324;1253;60522;-49
2023/04/29 06:09:27;;;;;;;0.90;0.30;;;;;;;9.14;100.00;99773.70;105579;1257;74569;-50
2023/04/29 06:12:00;;;;;;;1.20;0.30;;;;;;;9.22;100.00;99775.86;105505;1253;66670;-50
2023/04/29 06:14:27;;;;;;;0.70;0.40;;;;;;;9.28;100.00;99772.92;105241;1252;73475;-50
2023/04/29 06:16:54;;;;;;;0.70;0.30;;;;;;;9.33;100.00;99773.23;105340;1257;62705;-50
2023/04/29 06:19:20;;;;;;;1.20;0.20;;;;;;;9.40;100.00;99771.66;105478;1253;60859;-50
2023/04/29 06:21:47;;;;;;;0.40;0.10;;;;;;;9.48;100.00;99771.66;105365;1253;73074;-49
2023/04/29 06:24:14;;;;;;;1.80;0.10;;;;;;;9.52;100.00;99762.55;105432;1257;67935;-50
2023/04/29 06:26:41;;;;;;;0.90;0.10;;;;;;;9.55;100.00;99768.15;105447;1253;71724;-50
2023/04/29 06:29:07;;;;;;;0.20;0.10;;;;;;;9.58;100.00;99766.04;105570;1253;60698;-50
2023/04/29 06:31:35;;;;;;;2.10;0.20;;;;;;;9.60;100.00;99766.33;105548;1252;60462;-48
2023/04/29 06:34:03;;;;;;;1.80;0.20;;;;;;;9.63;100.00;99771.71;106113;1253;74800;-49
2023/04/29 06:36:31;;;;;;;1.20;0.30;;;;;;;9.69;100.00;99778.45;105433;1253;67286;-48
2023/04/29 06:39:07;;;;;;;0.30;0.10;;;;;;;9.72;100.00;99765.96;106346;1255;73149;-49
2023/04/29 06:41:46;;;;;;;0.50;0.20;;;;;;;9.75;100.00;99766.35;105901;1253;60388;-47
2023/04/29 06:44:31;;;;;;;0.60;0.20;;;;;;;9.82;100.00;99774.30;105624;1256;61897;-47
2023/04/29 06:47:04;;;;;;;1.70;0.20;;;;;;;9.88;100.00;99770.96;105645;1257;73781;-49
2023/04/29 06:49:47;;;;;;;0.20;0.10;;;;;;;9.95;100.00;99767.08;109197;1253;67165;-51
2023/04/29 06:52:14;;;;;;;2.60;0.10;;;;;;;10.01;100.00;99762.34;109195;1253;73312;-49
2023/04/29 06:54:42;;;;;;;0.90;0.10;;;;;;;10.05;100.00;99766.23;107869;1253;61357;-46
2023/04/29 06:57:08;;;;;;;1.60;0.20;;;;;;;10.09;100.00;99762.85;105665;1253;61094;-48
2023/04/29 06:59:36;;;;;;;0.30;0.10;;;;;;;10.11;100.00;99767.61;105487;1253;73504;-50
2023/04/29 07:02:03;;;;;;;1.20;0.10;;;;;;;10.11;100.00;99761.67;105534;1253;68161;-47
2023/04/29 07:04:30;;;;;;;0.70;0.20;;;;;;;10.13;100.00;99762.83;105487;1253;72947;-49
2023/04/29 07:06:58;;;;;;;2.40;0.20;;;;;;;10.18;100.00;99764.07;108107;1255;60624;-48
2023/04/29 07:09:26;;;;;;;0.40;0.20;;;;;;;10.24;100.00;99765.92;109115;1253;59222;-52
2023/04/29 07:11:53;;;;;;;0.60;0.10;;;;;;;10.32;100.00;99760.54;109023;1253;71586;-50
2023/04/29 07:14:21;;;;;;;3.50;0.20;;;;;;;10.41;100.00;99766.42;109131;1252;65372;-47
2023/04/29 07:16:52;;;;;;;1.70;0.10;;;;;;;10.48;100.00;99764.81;109151;1253;72172;-48
2023/04/29 07:19:19;;;;;;;0.40;0.20;;;;;;;10.53;100.00;99763.15;109216;1252;61405;-50
2023/04/29 07:21:46;;;;;;;0.30;0.10;;;;;;;10.55;100.00;99761.38;108997;1253;60405;-49
2023/04/29 07:24:12;;;;;;;0.40;0.10;;;;;;;10.57;100.00;99763.99;109230;1252;72283;-48
2023/04/29 07:26:39;;;;;;;1.60;0.20;;;;;;;10.61;100.00;99760.23;109218;1253;58352;-47
2023/04/29 07:29:06;;;;;;;0.60;0.20;;;;;;;10.64;100.00;99759.00;109208;1253;72917;-49
2023/04/29 07:31:34;;;;;;;0.90;0.10;;;;;;;10.65;100.00;99761.11;109169;1252;59435;-48
2023/04/29 07:34:04;;;;;;;0.30;0.10;;;;;;;10.63;100.00;99760.67;109072;1252;58541;-47
2023/04/29 07:36:31;;;;;;;0.40;0.10;;;;;;;10.65;100.00;99753.94;109036;1253;72959;-48
2023/04/29 07:38:58;;;;;;;1.40;0.10;;;;;;;10.68;100.00;99759.16;107942;1253;69195;-49
2023/04/29 07:41:26;;;;;;;0.50;0.20;;;;;;;10.73;100.00;99760.73;109229;1253;71779;-51
2023/04/29 07:43:53;;;;;;;0.60;0.10;;;;;;;10.78;100.00;99751.66;108920;1253;60041;-50
2023/04/29 07:46:19;;;;;;;0.70;0.20;;;;;;;10.82;100.00;99749.66;105707;1258;60374;-50
2023/04/29 07:48:46;;;;;;;0.30;0.10;;;;;;;10.88;100.00;99754.06;105482;1253;74423;-48
2023/04/29 07:51:13;;;;;;;0.90;0.20;;;;;;;10.91;100.00;99744.92;105493;1259;66254;-49
2023/04/29 07:53:42;;;;;;;0.30;0.10;;;;;;;10.90;100.00;99740.46;105405;1256;71972;-49
2023/04/29 07:56:08;;;;;;;2.60;0.10;;;;;;;10.88;100.00;99742.20;105391;1258;60404;-48
2023/04/29 07:58:35;;;;;;;0.30;0.10;;;;;;;10.89;100.00;99733.36;105392;1253;61855;-47
2023/04/29 08:01:07;;;;;;;0.60;0.20;;;;;;;10.93;100.00;99737.09;105468;1258;73783;-51
2023/04/29 08:03:34;;;;;;;1.00;0.20;;;;;;;11.02;100.00;99737.21;105662;1253;67642;-51
2023/04/29 08:06:03;;;;;;;1.20;0.10;;;;;;;11.12;100.00;99739.01;107049;1256;71751;-49
2023/04/29 08:08:30;;;;;;;1.90;0.10;;;;;;;11.19;100.00;99737.04;105607;1253;61814;-49
2023/04/29 08:10:57;;;;;;;1.40;0.20;;;;;;;11.20;100.00;99738.60;105396;1257;60541;-47
2023/04/29 08:13:24;;;;;;;0.40;0.20;;;;;;;11.20;100.00;99739.85;105807;1255;74404;-50
2023/04/29 08:15:51;;;;;;;0.60;0.10;;;;;;;11.24;100.00;99732.64;105683;1259;67552;-49
2023/04/29 08:18:20;;;;;;;0.40;0.20;;;;;;;11.26;100.00;99731.13;106099;1253;72759;-49
2023/04/29 08:20:48;;;;;;;1.70;0.10;;;;;;;11.26;100.00;99730.54;105766;1256;61125;-51
2023/04/29 08:23:15;;;;;;;0.80;0.10;;;;;;;11.28;100.00;99730.30;105518;1256;61221;-51
2023/04/29 08:25:42;;;;;;;0.40;0.20;;;;;;;11.30;100.00;99724.96;105975;1256;72958;-48
2023/04/29 08:28:10;;;;;;;0.30;0.20;;;;;;;11.35;100.00;99728.81;106078;1253;65210;-50
2023/04/29 08:30:40;;;;;;;0.20;0.10;;;;;;;11.38;100.00;99727.42;105993;1257;71431;-49
2023/04/29 08:33:07;;;;;;;1.40;0.30;;;;;;;11.40;100.00;99731.80;105718;1257;60419;-48
2023/04/29 08:35:36;;;;;;;0.60;0.10;;;;;;;11.46;100.00;99730.83;105888;1253;60434;-51
2023/04/29 08:38:06;;;;;;;0.20;0.10;;;;;;;11.48;100.00;99727.65;106161;1254;73031;-49
2023/04/29 08:40:34;;;;;;;0.30;0.10;;;;;;;11.46;100.00;99723.77;106027;1253;69497;-52
2023/04/29 08:43:02;;;;;;;0.60;0.20;;;;;;;11.47;100.00;99717.12;105771;1256;72800;-52
2023/04/29 08:45:28;;;;;;;0.20;0.20;;;;;;;11.49;100.00;99716.42;105994;1256;60487;-50
2023/04/29 08:47:56;;;;;;;3.30;0.80;;;;;;;11.57;100.00;99716.55;105816;1253;60587;-48
2023/04/29 08:50:23;;;;;;;0.30;0.20;;;;;;;11.66;100.00;99722.90;105538;1259;75010;-52
2023/04/29 08:52:50;;;;;;;0.30;0.10;;;;;;;11.70;100.00;99716.41;105827;1253;67321;-51
2023/04/29 08:55:17;;;;;;;0.70;0.10;;;;;;;11.72;100.00;99720.39;105725;1254;71699;-47
2023/04/29 08:57:44;;;;;;;3.30;0.20;;;;;;;11.81;100.00;99714.56;106070;1256;60531;-47
2023/04/29 09:00:11;;;;;;;1.60;0.10;;;;;;;11.84;100.00;99713.14;105485;1258;60433;-49
2023/04/29 09:02:40;;;;;;;0.70;0.20;;;;;;;11.87;100.00;99710.27;106549;1256;72891;-49
2023/04/29 09:05:10;;;;;;;0.60;0.10;;;;;;;11.98;100.00;99712.39;105709;1254;66111;-49
2023/04/29 09:07:38;;;;;;;0.70;0.20;;;;;;;12.02;100.00;99712.85;105601;1256;71673;-47
2023/04/29 09:10:05;;;;;;;0.60;0.20;;;;;;;12.05;100.00;99708.77;105646;1256;60389;-47
2023/04/29 09:12:32;;;;;;;0.20;0.20;;;;;;;12.07;100.00;99702.85;105747;1253;60510;-48
2023/04/29 09:14:59;;;;;;;1.70;0.20;;;;;;;12.14;100.00;99703.24;105553;1256;74784;-47
2023/04/29 09:17:45;;;;;;;0.20;0.20;;;;;;;12.23;100.00;99707.38;106875;1256;67728;-52
2023/04/29 09:20:21;;;;;;;0.30;0.20;;;;;;;12.32;100.00;99710.84;106221;1253;72767;-47
2023/04/29 09:22:51;;;;;;;0.20;0.10;;;;;;;12.34;100.00;99711.60;105325;1256;311622;-47
2023/04/29 09:26:39;;;;;;;0.40;0.20;;;;;;;12.35;100.00;99713.70;102293;1292;601067;-48
2023/04/29 09:29:07;;;;;;;1.20;0.10;;;;;;;12.35;100.00;99714.11;104897;1272;59763;-51
2023/04/29 09:31:33;;;;;;;1.30;0.30;;;;;;;12.35;100.00;99715.69;104819;1266;62148;-49
2023/04/29 09:34:01;;;;;;;0.30;0.10;;;;;;;12.30;100.00;99712.05;105036;1267;74626;-47
2023/04/29 09:36:37;;;;;;;0.50;0.20;;;;;;;12.23;100.00;99707.08;104637;1269;69514;-47
2023/04/29 09:39:09;;;;;;;0.40;0.20;;;;;;;12.21;100.00;99713.11;104410;1269;135612;-48
2023/04/29 09:41:52;;;;;;;0.20;0.10;;;;;;;12.23;100.00;99717.34;105381;1265;61391;-47
2023/04/29 09:44:26;;;;;;;0.80;0.20;;;;;;;12.27;100.00;99710.41;104656;1266;60555;-48
2023/04/29 09:47:01;;;;;;;1.30;0.20;;;;;;;12.32;100.00;99706.19;104826;1264;72560;-51
2023/04/29 09:49:39;;;;;;;3.10;0.20;;;;;;;12.35;100.00;99702.39;105886;1265;68292;-47
2023/04/29 09:52:08;;;;;;;0.70;0.20;;;;;;;12.39;100.00;99701.63;104256;1265;71347;-48
2023/04/29 09:54:37;;;;;;;0.50;0.20;;;;;;;12.41;100.00;99704.95;104716;1265;60042;-48
2023/04/29 09:57:04;;;;;;;0.30;0.20;;;;;;;12.45;100.00;99696.05;105156;1264;59652;-48
2023/04/29 09:59:36;;;;;;;3.40;0.20;;;;;;;12.43;100.00;99693.99;104407;1268;74832;-50
2023/04/29 10:02:16;;;;;;;1.00;0.10;;;;;;;12.39;100.00;99694.06;104695;1267;68085;-50
2023/04/29 10:04:44;;;;;;;0.30;0.20;;;;;;;12.43;100.00;99688.79;107075;1264;74974;-52
2023/04/29 10:07:18;;;;;;;0.50;0.20;;;;;;;12.51;100.00;99689.62;108398;1270;60701;-51
2023/04/29 10:09:46;;;;;;;0.30;0.10;;;;;;;12.53;100.00;99679.23;108374;1265;60439;-49
2023/04/29 10:12:17;;;;;;;0.70;0.20;;;;;;;12.54;100.00;99675.95;108184;1265;73912;-49
2023/04/29 10:14:49;;;;;;;0.80;0.10;;;;;;;12.59;100.00;99676.35;108232;1268;68450;-53
2023/04/29 10:17:20;;;;;;;0.40;0.10;;;;;;;12.68;100.00;99676.36;108383;1266;74759;-50
2023/04/29 10:20:04;;;;;;;0.20;0.10;;;;;;;12.72;100.00;99670.36;108300;1265;60106;-51
2023/04/29 10:22:35;;;;;;;0.50;0.20;;;;;;;12.76;100.00;99669.05;108365;1268;60584;-51
2023/04/29 10:25:02;;;;;;;0.80;0.10;;;;;;;12.77;100.00;99671.88;108406;1265;75154;-49
2023/04/29 10:27:29;;;;;;;1.60;0.20;;;;;;;12.76;100.00;99672.48;108105;1266;67274;-50
2023/04/29 10:29:56;;;;;;;0.40;0.20;;;;;;;12.77;100.00;99667.91;108261;1265;73022;-50
2023/04/29 10:32:22;;;;;;;1.20;0.10;;;;;;;12.79;100.00;99659.88;108202;1263;60966;-49
2023/04/29 10:34:49;;;;;;;0.50;0.20;;;;;;;12.78;100.00;99660.30;108395;1263;62283;-52
2023/04/29 10:37:16;;;;;;;3.40;0.30;;;;;;;12.83;100.00;99660.88;108264;1265;73190;-52
2023/04/29 10:40:04;;;;;;;1.60;0.20;;;;;;;12.89;100.00;99659.11;108239;1265;68003;-50
2023/04/29 10:42:45;;;;;;;0.70;0.20;;;;;;;12.90;100.00;99659.95;108122;1266;70893;-50
2023/04/29 10:45:26;;;;;;;0.30;0.20;;;;;;;12.91;100.00;99652.71;104639;1271;61013;-51
2023/04/29 10:48:05;;;;;;;0.40;0.10;;;;;;;12.90;100.00;99650.44;104174;1270;60546;-49
2023/04/29 10:50:33;;;;;;;0.60;0.20;;;;;;;12.91;100.00;99648.59;104248;1265;76006;-48
2023/04/29 10:53:03;;;;;;;0.20;0.20;;;;;;;12.92;100.00;99648.15;104398;1271;66555;-51
2023/04/29 10:55:30;;;;;;;0.40;0.20;;;;;;;12.95;100.00;99644.34;104887;1268;71976;-49
2023/04/29 10:57:57;;;;;;;0.90;0.10;;;;;;;13.01;100.00;99639.48;104197;1271;61802;-47
2023/04/29 11:00:29;;;;;;;0.40;0.20;;;;;;;13.07;100.00;99642.92;104138;1263;60082;-47
2023/04/29 11:02:56;;;;;;;0.70;0.10;;;;;;;13.09;100.00;99636.16;104226;1271;73898;-48
2023/04/29 11:05:33;;;;;;;1.90;0.20;;;;;;;13.09;100.00;99636.14;104267;1265;69219;-49
2023/04/29 11:08:15;;;;;;;0.40;0.20;;;;;;;13.10;100.00;99639.45;104636;1259;76517;-52
2023/04/29 11:10:42;;;;;;;0.30;0.10;;;;;;;13.13;100.00;99632.10;104606;1264;62231;-48
2023/04/29 11:13:25;;;;;;;0.10;0.10;;;;;;;13.16;100.00;99626.92;105281;1257;60180;-51
2023/04/29 11:15:53;;;;;;;2.50;0.10;;;;;;;13.18;100.00;99626.00;105429;1257;74497;-48
2023/04/29 11:18:19;;;;;;;3.00;0.10;;;;;;;13.17;100.00;99625.96;104810;1257;67370;-49
2023/04/29 11:21:05;;;;;;;0.70;0.20;;;;;;;13.16;100.00;99627.23;104843;1259;71452;-48
2023/04/29 11:23:40;;;;;;;0.90;0.20;;;;;;;13.15;100.00;99627.67;104593;1258;60211;-48
2023/04/29 11:26:07;;;;;;;0.30;0.20;;;;;;;13.15;100.00;99628.23;107423;1260;59817;-49
2023/04/29 11:28:34;;;;;;;0.50;0.20;;;;;;;13.18;100.00;99626.02;105544;1264;73179;-48
2023/04/29 11:31:02;;;;;;;0.60;0.20;;;;;;;13.22;100.00;99614.80;104861;1259;69547;-48
2023/04/29 11:33:31;;;;;;;0.80;0.20;;;;;;;13.24;100.00;99613.25;105443;1261;72586;-53